createdAt,value
2017-03-02T00:00:23.453Z,4.15
2017-03-02T00:01:33.576Z,4.08
2017-03-02T00:02:43.947Z,4.09
2017-03-02T00:03:53.837Z,4.2
2017-03-02T00:05:03.414Z,4.09
2017-03-02T00:06:13.864Z,4.05
2017-03-02T00:07:24.018Z,4.05
2017-03-02T00:08:34.290Z,4.05
2017-03-02T00:09:44.812Z,3.97
2017-03-02T00:10:54.726Z,4.04
2017-03-02T00:12:05.082Z,4.03
2017-03-02T00:13:15.609Z,3.98
2017-03-02T00:14:25.908Z,4.08
2017-03-02T00:15:35.797Z,4.01
2017-03-02T00:16:45.723Z,4.11
2017-03-02T00:17:56.061Z,4.04
2017-03-02T00:19:06.289Z,3.97
2017-03-02T00:20:15.752Z,4
2017-03-02T00:21:26.070Z,4.04
2017-03-02T00:22:35.991Z,4.04
2017-03-02T00:23:46.320Z,4
2017-03-02T00:24:56.854Z,4.04
2017-03-02T00:26:07.138Z,3.97
2017-03-02T00:27:17.419Z,4
2017-03-02T00:28:27.780Z,3.93
2017-03-02T00:29:37.269Z,3.94
2017-03-02T00:30:47.907Z,3.85
2017-03-02T00:31:58.283Z,3.95
2017-03-02T00:33:08.163Z,3.94
2017-03-02T00:34:18.587Z,3.85
2017-03-02T00:35:28.515Z,3.91
2017-03-02T00:36:38.233Z,3.94
2017-03-02T00:37:48.567Z,3.97
2017-03-02T00:38:58.122Z,3.91
2017-03-02T00:40:08.205Z,3.95
2017-03-02T00:41:18.501Z,3.87
2017-03-02T00:42:29.302Z,3.85
2017-03-02T00:43:39.191Z,3.93
2017-03-02T00:44:49.583Z,3.87
2017-03-02T00:46:00.019Z,3.82
2017-03-02T00:47:10.433Z,3.8
2017-03-02T00:48:20.603Z,3.76
2017-03-02T00:49:30.936Z,3.79
2017-03-02T00:50:41.210Z,3.79
2017-03-02T00:51:50.724Z,3.8
2017-03-02T00:53:00.992Z,3.82
2017-03-02T00:54:11.504Z,3.77
2017-03-02T00:55:21.840Z,3.8
2017-03-02T00:56:32.178Z,3.82
2017-03-02T00:57:42.479Z,3.86
2017-03-02T00:58:51.957Z,3.86
2017-03-02T01:00:02.095Z,3.82
2017-03-02T01:01:11.963Z,3.86
2017-03-02T01:02:21.415Z,3.87
2017-03-02T01:03:31.352Z,3.9
2017-03-02T01:04:41.203Z,3.85
2017-03-02T01:05:51.352Z,3.93
2017-03-02T01:07:01.293Z,3.91
2017-03-02T01:08:11.577Z,3.93
2017-03-02T01:09:21.572Z,3.83
2017-03-02T01:10:31.428Z,3.95
2017-03-02T01:11:41.600Z,3.93
2017-03-02T01:12:51.872Z,3.87
2017-03-02T01:14:02.197Z,3.94
2017-03-02T01:15:12.451Z,3.86
2017-03-02T01:16:22.727Z,3.85
2017-03-02T01:17:33.010Z,3.9
2017-03-02T01:18:42.997Z,3.85
2017-03-02T01:19:52.892Z,3.8
2017-03-02T01:21:02.382Z,3.83
2017-03-02T01:22:12.794Z,3.79
2017-03-02T01:23:22.955Z,3.82
2017-03-02T01:24:32.821Z,3.82
2017-03-02T01:25:42.765Z,3.86
2017-03-02T01:26:53.089Z,3.79
2017-03-02T01:28:02.664Z,3.77
2017-03-02T01:29:12.416Z,3.85
2017-03-02T01:30:22.693Z,3.77
2017-03-02T01:31:32.975Z,3.79
2017-03-02T01:32:43.397Z,3.72
2017-03-02T01:33:53.260Z,3.76
2017-03-02T01:35:03.406Z,3.77
2017-03-02T01:36:13.341Z,3.79
2017-03-02T01:37:23.647Z,3.77
2017-03-02T01:38:33.976Z,3.79
2017-03-02T01:39:44.264Z,3.86
2017-03-02T01:40:53.989Z,3.72
2017-03-02T01:42:03.483Z,3.77
2017-03-02T01:43:13.099Z,3.76
2017-03-02T01:44:23.440Z,3.77
2017-03-02T01:45:33.808Z,3.77
2017-03-02T01:46:43.961Z,3.8
2017-03-02T01:47:53.844Z,3.8
2017-03-02T01:49:04.120Z,3.8
2017-03-02T01:50:14.056Z,3.83
2017-03-02T01:51:23.995Z,3.75
2017-03-02T01:52:34.567Z,3.72
2017-03-02T01:53:44.873Z,3.73
2017-03-02T01:54:55.194Z,3.72
2017-03-02T01:56:05.050Z,3.73
2017-03-02T01:57:15.343Z,3.65
2017-03-02T01:58:25.577Z,3.73
2017-03-02T01:59:35.932Z,3.72
2017-03-02T02:00:46.282Z,3.69
2017-03-02T02:01:56.189Z,3.69
2017-03-02T02:03:06.093Z,3.69
2017-03-02T02:04:16.290Z,3.64
2017-03-02T02:05:26.208Z,3.69
2017-03-02T02:06:36.723Z,3.64
2017-03-02T02:07:47.079Z,3.76
2017-03-02T02:08:57.453Z,3.77
2017-03-02T02:10:07.662Z,3.68
2017-03-02T02:11:18.004Z,3.68
2017-03-02T02:12:28.507Z,3.69
2017-03-02T02:13:38.828Z,3.64
2017-03-02T02:14:49.099Z,3.72
2017-03-02T02:15:59.255Z,3.73
2017-03-02T02:17:09.105Z,3.73
2017-03-02T02:18:19.372Z,3.79
2017-03-02T02:19:29.694Z,3.61
2017-03-02T02:20:40.058Z,3.73
2017-03-02T02:21:50.240Z,3.75
2017-03-02T02:23:00.499Z,3.69
2017-03-02T02:24:10.346Z,3.76
2017-03-02T02:25:20.278Z,3.67
2017-03-02T02:26:30.530Z,3.77
2017-03-02T02:27:40.748Z,3.72
2017-03-02T02:28:51.133Z,3.72
2017-03-02T02:30:01.428Z,3.72
2017-03-02T02:31:11.718Z,3.69
2017-03-02T02:32:21.577Z,3.76
2017-03-02T02:33:31.734Z,3.73
2017-03-02T02:34:42.035Z,3.68
2017-03-02T02:35:52.331Z,3.79
2017-03-02T02:37:02.616Z,3.75
2017-03-02T02:38:12.961Z,3.8
2017-03-02T02:39:23.570Z,3.65
2017-03-02T02:40:33.489Z,3.67
2017-03-02T02:41:43.353Z,3.73
2017-03-02T02:42:53.668Z,3.83
2017-03-02T02:44:04.146Z,3.69
2017-03-02T02:45:14.681Z,3.73
2017-03-02T02:46:24.625Z,3.69
2017-03-02T02:47:34.988Z,3.75
2017-03-02T02:48:44.841Z,3.67
2017-03-02T02:49:55.211Z,3.79
2017-03-02T02:51:05.708Z,3.75
2017-03-02T02:52:15.960Z,3.73
2017-03-02T02:53:26.333Z,3.69
2017-03-02T02:54:36.647Z,3.72
2017-03-02T02:55:46.952Z,3.77
2017-03-02T02:56:57.771Z,3.76
2017-03-02T02:58:08.256Z,3.75
2017-03-02T02:59:18.544Z,3.76
2017-03-02T03:00:28.832Z,3.69
2017-03-02T03:01:38.322Z,3.67
2017-03-02T03:02:48.915Z,3.72
2017-03-02T03:03:58.765Z,3.73
2017-03-02T03:05:08.620Z,3.73
2017-03-02T03:06:18.508Z,3.67
2017-03-02T03:07:28.795Z,3.75
2017-03-02T03:08:39.382Z,3.75
2017-03-02T03:09:49.318Z,3.72
2017-03-02T03:10:59.625Z,3.67
2017-03-02T03:12:09.942Z,3.64
2017-03-02T03:13:20.202Z,3.65
2017-03-02T03:14:30.780Z,3.67
2017-03-02T03:15:40.690Z,3.62
2017-03-02T03:16:51.022Z,3.69
2017-03-02T03:18:00.928Z,3.64
2017-03-02T03:19:10.121Z,3.72
2017-03-02T03:20:20.640Z,3.79
2017-03-02T03:21:30.941Z,3.69
2017-03-02T03:22:40.820Z,3.72
2017-03-02T03:23:51.125Z,3.72
2017-03-02T03:25:00.990Z,3.75
2017-03-02T03:26:11.128Z,3.73
2017-03-02T03:27:21.462Z,3.69
2017-03-02T03:28:30.930Z,3.75
2017-03-02T03:29:41.200Z,3.79
2017-03-02T03:30:50.718Z,3.83
2017-03-02T03:32:01.248Z,3.8
2017-03-02T03:33:11.541Z,3.8
2017-03-02T03:34:21.914Z,3.75
2017-03-02T03:35:32.386Z,3.79
2017-03-02T03:36:42.671Z,3.75
2017-03-02T03:37:52.835Z,3.77
2017-03-02T03:39:02.752Z,3.79
2017-03-02T03:40:12.669Z,3.73
2017-03-02T03:41:22.535Z,3.79
2017-03-02T03:42:32.406Z,3.67
2017-03-02T03:43:42.605Z,3.73
2017-03-02T03:44:52.497Z,3.73
2017-03-02T03:46:02.818Z,3.68
2017-03-02T03:47:12.743Z,3.79
2017-03-02T03:48:22.650Z,3.73
2017-03-02T03:49:33.156Z,3.67
2017-03-02T03:50:43.548Z,3.73
2017-03-02T03:51:53.426Z,3.73
2017-03-02T03:53:03.309Z,3.68
2017-03-02T03:54:13.651Z,3.69
2017-03-02T03:55:23.792Z,3.67
2017-03-02T03:56:33.656Z,3.67
2017-03-02T03:57:43.547Z,3.68
2017-03-02T03:58:53.440Z,3.65
2017-03-02T04:00:03.717Z,3.67
2017-03-02T04:01:13.850Z,3.73
2017-03-02T04:02:23.795Z,3.72
2017-03-02T04:03:34.071Z,3.68
2017-03-02T04:04:43.563Z,3.67
2017-03-02T04:05:53.850Z,3.72
2017-03-02T04:07:03.539Z,3.67
2017-03-02T04:08:13.900Z,3.61
2017-03-02T04:09:24.190Z,3.72
2017-03-02T04:10:34.472Z,3.77
2017-03-02T04:11:44.329Z,3.64
2017-03-02T04:12:54.886Z,3.65
2017-03-02T04:14:05.325Z,3.69
2017-03-02T04:15:14.432Z,3.69
2017-03-02T04:16:24.434Z,3.65
2017-03-02T04:17:34.304Z,3.75
2017-03-02T04:18:44.598Z,3.72
2017-03-02T04:19:54.928Z,3.69
2017-03-02T04:21:05.178Z,3.68
2017-03-02T04:22:15.498Z,3.64
2017-03-02T04:23:25.843Z,3.67
2017-03-02T04:24:36.441Z,3.68
2017-03-02T04:25:46.395Z,3.64
2017-03-02T04:26:56.687Z,3.58
2017-03-02T04:28:06.971Z,3.65
2017-03-02T04:29:16.841Z,3.65
2017-03-02T04:30:27.081Z,3.67
2017-03-02T04:31:36.535Z,3.82
2017-03-02T04:32:46.441Z,3.67
2017-03-02T04:33:56.434Z,3.67
2017-03-02T04:35:06.429Z,3.68
2017-03-02T04:36:17.021Z,3.64
2017-03-02T04:37:26.538Z,3.72
2017-03-02T04:38:36.420Z,3.69
2017-03-02T04:39:46.320Z,3.72
2017-03-02T04:40:56.587Z,3.76
2017-03-02T04:42:06.707Z,3.68
2017-03-02T04:43:17.057Z,3.75
2017-03-02T04:44:27.348Z,3.68
2017-03-02T04:45:37.685Z,3.69
2017-03-02T04:46:47.605Z,3.73
2017-03-02T04:47:57.817Z,3.65
2017-03-02T04:49:08.131Z,3.67
2017-03-02T04:50:17.625Z,3.75
2017-03-02T04:51:27.949Z,3.73
2017-03-02T04:52:38.288Z,3.69
2017-03-02T04:53:48.934Z,3.69
2017-03-02T04:54:58.855Z,3.76
2017-03-02T04:56:08.723Z,3.72
2017-03-02T04:57:18.296Z,3.69
2017-03-02T04:58:28.198Z,3.76
2017-03-02T04:59:38.025Z,3.83
2017-03-02T05:00:47.887Z,3.79
2017-03-02T05:01:57.763Z,3.79
2017-03-02T05:03:07.654Z,3.86
2017-03-02T05:04:17.906Z,3.9
2017-03-02T05:05:28.523Z,3.98
2017-03-02T05:06:38.452Z,3.93
2017-03-02T05:07:48.502Z,3.93
2017-03-02T05:08:58.409Z,3.94
2017-03-02T05:10:08.680Z,3.95
2017-03-02T05:11:18.883Z,3.87
2017-03-02T05:12:28.860Z,3.98
2017-03-02T05:13:39.163Z,3.95
2017-03-02T05:14:49.129Z,3.97
2017-03-02T05:15:59.443Z,4
2017-03-02T05:17:09.967Z,4.03
2017-03-02T05:18:20.249Z,4.01
2017-03-02T05:19:30.134Z,4
2017-03-02T05:20:40.011Z,4.12
2017-03-02T05:21:49.903Z,4.12
2017-03-02T05:23:00.701Z,4.16
2017-03-02T05:24:11.051Z,4.19
2017-03-02T05:25:21.359Z,4.28
2017-03-02T05:26:31.237Z,4.28
2017-03-02T05:27:41.543Z,4.25
2017-03-02T05:28:51.734Z,4.34
2017-03-02T05:30:02.009Z,4.34
2017-03-02T05:31:12.549Z,4.27
2017-03-02T05:32:22.433Z,4.31
2017-03-02T05:33:32.768Z,4.43
2017-03-02T05:34:43.318Z,4.4
2017-03-02T05:35:53.220Z,4.41
2017-03-02T05:37:03.476Z,4.38
2017-03-02T05:38:13.424Z,4.46
2017-03-02T05:39:23.743Z,4.43
2017-03-02T05:40:34.274Z,4.55
2017-03-02T05:41:44.545Z,4.57
2017-03-02T05:42:54.851Z,4.57
2017-03-02T05:44:04.764Z,4.6
2017-03-02T05:45:14.684Z,4.62
2017-03-02T05:46:25.268Z,4.57
2017-03-02T05:47:35.129Z,4.73
2017-03-02T05:48:45.425Z,4.71
2017-03-02T05:49:55.770Z,4.6
2017-03-02T05:51:05.643Z,4.63
2017-03-02T05:52:15.515Z,4.74
2017-03-02T05:53:25.798Z,4.75
2017-03-02T05:54:36.059Z,4.8
2017-03-02T05:55:45.619Z,4.71
2017-03-02T05:56:54.677Z,4.74
2017-03-02T05:58:05.306Z,4.73
2017-03-02T05:59:15.188Z,4.77
2017-03-02T06:00:25.089Z,4.83
2017-03-02T06:01:35.446Z,4.8
2017-03-02T06:02:44.916Z,4.85
2017-03-02T06:03:55.128Z,4.83
2017-03-02T06:05:05.588Z,4.85
2017-03-02T06:06:15.898Z,4.83
2017-03-02T06:07:25.900Z,4.85
2017-03-02T06:08:36.168Z,4.83
2017-03-02T06:09:46.344Z,4.8
2017-03-02T06:10:55.906Z,4.81
2017-03-02T06:12:06.240Z,4.81
2017-03-02T06:13:16.091Z,4.85
2017-03-02T06:14:25.944Z,4.85
2017-03-02T06:15:36.549Z,4.83
2017-03-02T06:16:46.413Z,4.8
2017-03-02T06:17:56.294Z,4.81
2017-03-02T06:19:06.203Z,4.86
2017-03-02T06:20:16.190Z,4.85
2017-03-02T06:21:26.810Z,4.88
2017-03-02T06:22:36.689Z,4.95
2017-03-02T06:23:47.165Z,5.1
2017-03-02T06:24:57.417Z,5.31
2017-03-02T06:26:07.726Z,5.32
2017-03-02T06:27:17.874Z,5.28
2017-03-02T06:28:28.152Z,5.21
2017-03-02T06:29:38.461Z,5.28
2017-03-02T06:30:48.717Z,5.22
2017-03-02T06:31:58.220Z,5.18
2017-03-02T06:33:08.402Z,5.14
2017-03-02T06:34:18.301Z,5.1
2017-03-02T06:35:28.637Z,5.14
2017-03-02T06:36:38.939Z,5.13
2017-03-02T06:37:49.314Z,5.11
2017-03-02T06:38:59.895Z,5.04
2017-03-02T06:40:09.765Z,5
2017-03-02T06:41:20.070Z,4.96
2017-03-02T06:42:30.358Z,4.89
2017-03-02T06:43:40.654Z,4.89
2017-03-02T06:44:51.255Z,4.68
2017-03-02T06:46:01.664Z,4.7
2017-03-02T06:47:12.008Z,4.6
2017-03-02T06:48:22.340Z,4.56
2017-03-02T06:49:32.631Z,4.46
2017-03-02T06:50:42.916Z,4.34
2017-03-02T06:51:53.192Z,4.38
2017-03-02T06:53:03.082Z,4.41
2017-03-02T06:54:12.665Z,4.33
2017-03-02T06:55:23.041Z,4.43
2017-03-02T06:56:33.562Z,4.41
2017-03-02T06:57:43.440Z,4.31
2017-03-02T06:58:53.380Z,4.27
2017-03-02T07:00:03.249Z,4.28
2017-03-02T07:01:12.700Z,4.43
2017-03-02T07:02:22.832Z,4.4
2017-03-02T07:03:32.700Z,4.46
2017-03-02T07:04:43.015Z,4.38
2017-03-02T07:05:52.920Z,4.36
2017-03-02T07:07:02.803Z,4.41
2017-03-02T07:08:13.322Z,4.46
2017-03-02T07:09:23.712Z,4.46
2017-03-02T07:10:34.090Z,4.41
2017-03-02T07:11:43.994Z,4.38
2017-03-02T07:12:54.352Z,4.43
2017-03-02T07:14:04.900Z,4.43
2017-03-02T07:15:14.845Z,4.5
2017-03-02T07:16:24.763Z,4.5
2017-03-02T07:17:34.684Z,4.6
2017-03-02T07:18:44.997Z,4.55
2017-03-02T07:19:55.735Z,4.7
2017-03-02T07:21:06.015Z,4.74
2017-03-02T07:22:15.856Z,4.83
2017-03-02T07:23:26.222Z,4.92
2017-03-02T07:24:36.086Z,4.92
2017-03-02T07:25:46.237Z,4.99
2017-03-02T07:26:56.580Z,5
2017-03-02T07:28:06.967Z,5.04
2017-03-02T07:29:16.446Z,5.17
2017-03-02T07:30:26.325Z,5.18
2017-03-02T07:31:37.075Z,5.16
2017-03-02T07:32:46.939Z,5.35
2017-03-02T07:33:56.794Z,5.4
2017-03-02T07:35:06.663Z,5.5
2017-03-02T07:36:17.044Z,5.61
2017-03-02T07:37:27.186Z,5.69
2017-03-02T07:38:37.113Z,5.67
2017-03-02T07:39:47.600Z,5.99
2017-03-02T07:40:58.273Z,6.9
2017-03-02T07:42:08.896Z,7.77
2017-03-02T07:43:20.162Z,8.53
2017-03-02T07:44:31.398Z,9.37
2017-03-02T07:45:42.489Z,9.99
2017-03-02T07:46:53.105Z,10.52
2017-03-02T07:48:03.636Z,11.03
2017-03-02T07:49:14.469Z,11.38
2017-03-02T07:50:25.114Z,11.58
2017-03-02T07:51:36.168Z,11.79
2017-03-02T07:52:46.261Z,11.74
2017-03-02T07:53:56.929Z,11.34
2017-03-02T07:55:08.182Z,11.23
2017-03-02T07:56:18.104Z,10.58
2017-03-02T07:57:28.035Z,10.07
2017-03-02T07:58:37.913Z,9.38
2017-03-02T07:59:47.780Z,8.95
2017-03-02T08:00:57.512Z,8.45
2017-03-02T08:02:08.148Z,8.35
2017-03-02T08:03:18.423Z,8.25
2017-03-02T08:04:28.655Z,9.02
2017-03-02T08:05:38.724Z,9.63
2017-03-02T08:06:49.994Z,9.92
2017-03-02T08:08:01.005Z,10.45
2017-03-02T08:09:11.294Z,10.4
2017-03-02T08:10:22.506Z,10.95
2017-03-02T08:11:32.614Z,11.42
2017-03-02T08:12:42.643Z,11.68
2017-03-02T08:13:52.860Z,12.04
2017-03-02T08:15:03.096Z,12.11
2017-03-02T08:16:13.600Z,12.62
2017-03-02T08:17:24.618Z,12.84
2017-03-02T08:18:35.668Z,12.66
2017-03-02T08:19:46.724Z,12.78
2017-03-02T08:20:57.340Z,12.96
2017-03-02T08:22:07.927Z,13.01
2017-03-02T08:23:18.936Z,13.31
2017-03-02T08:24:29.779Z,13.31
2017-03-02T08:25:40.849Z,13.18
2017-03-02T08:26:52.019Z,13.09
2017-03-02T08:28:03.030Z,12.81
2017-03-02T08:29:13.329Z,12.02
2017-03-02T08:30:23.603Z,10.91
2017-03-02T08:31:33.877Z,10.24
2017-03-02T08:32:44.167Z,9.58
2017-03-02T08:33:54.605Z,9.09
2017-03-02T08:35:04.861Z,8.58
2017-03-02T08:36:15.039Z,8.1
2017-03-02T08:37:25.295Z,8.02
2017-03-02T08:38:35.157Z,8.23
2017-03-02T08:39:44.717Z,8.07
2017-03-02T08:40:54.992Z,7.85
2017-03-02T08:42:05.836Z,8.31
2017-03-02T08:43:16.438Z,8.86
2017-03-02T08:44:26.323Z,9.2
2017-03-02T08:45:35.800Z,9
2017-03-02T08:46:45.837Z,8.66
2017-03-02T08:47:56.593Z,8.35
2017-03-02T08:49:07.085Z,8.2
2017-03-02T08:50:17.378Z,7.92
2017-03-02T08:51:27.742Z,7.8
2017-03-02T08:52:38.021Z,7.8
2017-03-02T08:53:48.922Z,7.84
2017-03-02T08:54:59.476Z,8.2
2017-03-02T08:56:09.989Z,8.53
2017-03-02T08:57:20.577Z,8.58
2017-03-02T08:58:31.227Z,8.87
2017-03-02T08:59:42.128Z,9.16
2017-03-02T09:00:53.291Z,9.11
2017-03-02T09:02:04.305Z,9.12
2017-03-02T09:03:14.867Z,9.34
2017-03-02T09:04:25.619Z,9.88
2017-03-02T09:05:37.033Z,10.18
2017-03-02T09:06:47.522Z,10.91
2017-03-02T09:07:57.766Z,11.34
2017-03-02T09:09:08.382Z,11.89
2017-03-02T09:10:18.967Z,12.56
2017-03-02T09:11:30.233Z,13.04
2017-03-02T09:12:41.312Z,13.44
2017-03-02T09:13:52.408Z,13.84
2017-03-02T09:15:03.395Z,14.4
2017-03-02T09:16:13.068Z,14.69
2017-03-02T09:17:23.960Z,14.48
2017-03-02T09:18:35.020Z,14.51
2017-03-02T09:19:45.754Z,14.5
2017-03-02T09:20:56.812Z,14.66
2017-03-02T09:22:07.350Z,13.82
2017-03-02T09:23:17.673Z,13.21
2017-03-02T09:24:28.306Z,13.03
2017-03-02T09:25:38.756Z,13.04
2017-03-02T09:26:49.767Z,12.8
2017-03-02T09:28:00.402Z,13.18
2017-03-02T09:29:11.225Z,12.88
2017-03-02T09:30:22.163Z,12.29
2017-03-02T09:31:33.238Z,12.13
2017-03-02T09:32:43.353Z,11.9
2017-03-02T09:33:53.740Z,11.57
2017-03-02T09:35:03.916Z,11.16
2017-03-02T09:36:13.020Z,10.5
2017-03-02T09:37:22.987Z,10.17
2017-03-02T09:38:33.319Z,9.78
2017-03-02T09:39:44.368Z,10.26
2017-03-02T09:40:55.210Z,10.85
2017-03-02T09:42:05.694Z,11.17
2017-03-02T09:43:16.756Z,11.42
2017-03-02T09:44:27.744Z,12.09
2017-03-02T09:45:38.362Z,12.34
2017-03-02T09:46:49.616Z,12.85
2017-03-02T09:48:00.644Z,13.23
2017-03-02T09:49:11.663Z,13.63
2017-03-02T09:50:22.318Z,14
2017-03-02T09:51:33.396Z,14.19
2017-03-02T09:52:44.725Z,14.1
2017-03-02T09:53:55.885Z,14.24
2017-03-02T09:55:06.957Z,14.02
2017-03-02T09:56:17.235Z,13.4
2017-03-02T09:57:27.880Z,13.21
2017-03-02T09:58:37.813Z,12.56
2017-03-02T09:59:48.023Z,12.35
2017-03-02T10:00:58.312Z,12.26
2017-03-02T10:02:08.224Z,12.02
2017-03-02T10:03:18.495Z,12.26
2017-03-02T10:04:29.089Z,11.89
2017-03-02T10:05:40.079Z,12.16
2017-03-02T10:06:50.671Z,12.47
2017-03-02T10:08:01.284Z,12.63
2017-03-02T10:09:11.908Z,12.55
2017-03-02T10:10:22.027Z,12.42
2017-03-02T10:11:31.497Z,12.16
2017-03-02T10:12:41.888Z,11.89
2017-03-02T10:13:52.915Z,11.77
2017-03-02T10:15:03.618Z,11.74
2017-03-02T10:16:13.841Z,11.66
2017-03-02T10:17:24.452Z,11.76
2017-03-02T10:18:35.494Z,11.84
2017-03-02T10:19:46.111Z,11.99
2017-03-02T10:20:57.217Z,11.97
2017-03-02T10:22:08.478Z,11.9
2017-03-02T10:23:17.982Z,11.79
2017-03-02T10:24:28.275Z,11.74
2017-03-02T10:25:38.562Z,11.59
2017-03-02T10:26:48.912Z,11.72
2017-03-02T10:27:59.489Z,11.76
2017-03-02T10:29:08.644Z,11.95
2017-03-02T10:30:18.927Z,12.07
2017-03-02T10:31:29.993Z,12.11
2017-03-02T10:32:40.285Z,12.45
2017-03-02T10:33:51.201Z,12.62
2017-03-02T10:35:00.671Z,12.92
2017-03-02T10:36:11.671Z,13.12
2017-03-02T10:37:22.303Z,13.19
2017-03-02T10:38:32.176Z,13.03
2017-03-02T10:39:42.730Z,12.97
2017-03-02T10:40:53.784Z,13.12
2017-03-02T10:42:04.452Z,13.23
2017-03-02T10:43:14.419Z,13.04
2017-03-02T10:44:24.354Z,12.81
2017-03-02T10:45:34.508Z,12.84
2017-03-02T10:46:45.002Z,12.89
2017-03-02T10:47:54.912Z,12.75
2017-03-02T10:49:05.918Z,12.63
2017-03-02T10:50:16.222Z,12.5
2017-03-02T10:51:26.762Z,12.53
2017-03-02T10:52:37.062Z,12.44
2017-03-02T10:53:47.156Z,12.56
2017-03-02T10:54:57.441Z,12.71
2017-03-02T10:56:07.751Z,12.63
2017-03-02T10:57:18.336Z,12.84
2017-03-02T10:58:28.657Z,12.85
2017-03-02T10:59:39.053Z,12.62
2017-03-02T11:00:48.919Z,12.82
2017-03-02T11:01:58.810Z,12.57
2017-03-02T11:03:09.369Z,12.31
2017-03-02T11:04:19.647Z,11.91
2017-03-02T11:05:30.017Z,11.61
2017-03-02T11:06:39.936Z,11.33
2017-03-02T11:07:50.323Z,11.09
2017-03-02T11:09:00.935Z,10.73
2017-03-02T11:10:11.235Z,10.22
2017-03-02T11:11:21.521Z,10.05
2017-03-02T11:12:31.841Z,9.62
2017-03-02T11:13:42.168Z,9.42
2017-03-02T11:14:52.696Z,9.11
2017-03-02T11:16:02.655Z,8.74
2017-03-02T11:17:12.593Z,8.5
2017-03-02T11:18:22.885Z,8.3
2017-03-02T11:19:32.811Z,8.1
2017-03-02T11:20:43.416Z,8.15
2017-03-02T11:21:53.712Z,8.03
2017-03-02T11:23:04.005Z,7.87
2017-03-02T11:24:14.269Z,7.88
2017-03-02T11:25:24.578Z,7.82
2017-03-02T11:26:35.098Z,7.79
2017-03-02T11:27:45.400Z,7.64
2017-03-02T11:28:55.870Z,7.54
2017-03-02T11:30:05.902Z,7.47
2017-03-02T11:31:16.158Z,7.31
2017-03-02T11:32:26.710Z,7.34
2017-03-02T11:33:37.041Z,7.33
2017-03-02T11:34:47.359Z,7.28
2017-03-02T11:35:57.646Z,7.17
2017-03-02T11:37:08.080Z,7.2
2017-03-02T11:38:18.264Z,7.17
2017-03-02T11:39:28.610Z,7.18
2017-03-02T11:40:38.920Z,7.2
2017-03-02T11:41:48.889Z,7.15
2017-03-02T11:42:58.805Z,7.13
2017-03-02T11:44:09.350Z,7.02
2017-03-02T11:45:19.708Z,6.97
2017-03-02T11:46:29.231Z,6.81
2017-03-02T11:47:39.522Z,6.59
2017-03-02T11:48:49.442Z,6.59
2017-03-02T11:49:59.993Z,6.57
2017-03-02T11:51:10.334Z,6.63
2017-03-02T11:52:20.603Z,6.53
2017-03-02T11:53:30.510Z,6.46
2017-03-02T11:54:40.806Z,6.46
2017-03-02T11:55:50.961Z,6.46
2017-03-02T11:57:01.261Z,6.45
2017-03-02T11:58:11.226Z,6.49
2017-03-02T11:59:21.132Z,6.41
2017-03-02T12:00:31.004Z,6.46
2017-03-02T12:01:41.263Z,6.41
2017-03-02T12:02:51.598Z,6.34
2017-03-02T12:04:01.877Z,6.27
2017-03-02T12:05:11.885Z,6.26
2017-03-02T12:06:22.172Z,6.23
2017-03-02T12:07:32.690Z,6.28
2017-03-02T12:08:42.982Z,6.27
2017-03-02T12:09:52.888Z,6.23
2017-03-02T12:11:02.461Z,6.28
2017-03-02T12:12:12.777Z,6.27
2017-03-02T12:13:22.551Z,6.23
2017-03-02T12:14:32.870Z,6.21
2017-03-02T12:15:42.325Z,6.16
2017-03-02T12:16:52.234Z,6.14
2017-03-02T12:18:01.745Z,6.05
2017-03-02T12:19:11.945Z,6.06
2017-03-02T12:20:21.852Z,6.11
2017-03-02T12:21:31.711Z,5.99
2017-03-02T12:22:41.659Z,5.96
2017-03-02T12:23:51.930Z,5.94
2017-03-02T12:25:02.505Z,5.93
2017-03-02T12:26:12.802Z,5.94
2017-03-02T12:27:23.093Z,5.9
2017-03-02T12:28:33.416Z,5.91
2017-03-02T12:29:43.844Z,5.86
2017-03-02T12:30:54.533Z,5.98
2017-03-02T12:32:04.033Z,5.99
2017-03-02T12:33:14.296Z,6.06
2017-03-02T12:34:24.580Z,6.08
2017-03-02T12:35:34.738Z,6.03
2017-03-02T12:36:45.262Z,6.11
2017-03-02T12:37:55.561Z,6.06
2017-03-02T12:39:05.909Z,6.05
2017-03-02T12:40:16.300Z,6.05
2017-03-02T12:41:26.610Z,6.08
2017-03-02T12:42:36.833Z,5.98
2017-03-02T12:43:47.130Z,5.88
2017-03-02T12:44:57.431Z,5.88
2017-03-02T12:46:06.989Z,5.93
2017-03-02T12:47:16.897Z,5.84
2017-03-02T12:48:27.229Z,5.74
2017-03-02T12:49:37.506Z,5.68
2017-03-02T12:50:47.902Z,5.68
2017-03-02T12:51:58.233Z,5.69
2017-03-02T12:53:08.521Z,5.69
2017-03-02T12:54:19.098Z,5.58
2017-03-02T12:55:28.978Z,5.56
2017-03-02T12:56:39.355Z,5.64
2017-03-02T12:57:49.696Z,5.65
2017-03-02T12:59:00.027Z,5.69
2017-03-02T13:00:10.582Z,5.68
2017-03-02T13:01:20.542Z,5.72
2017-03-02T13:02:30.847Z,5.68
2017-03-02T13:03:40.323Z,5.67
2017-03-02T13:04:50.730Z,5.51
2017-03-02T13:06:00.864Z,5.56
2017-03-02T13:07:11.152Z,5.53
2017-03-02T13:08:21.503Z,5.49
2017-03-02T13:09:31.906Z,5.47
2017-03-02T13:10:41.773Z,5.51
2017-03-02T13:11:52.324Z,5.5
2017-03-02T13:13:02.712Z,5.53
2017-03-02T13:14:12.603Z,5.51
2017-03-02T13:15:22.909Z,5.59
2017-03-02T13:16:32.833Z,5.54
2017-03-02T13:17:43.393Z,5.58
2017-03-02T13:18:53.311Z,5.67
2017-03-02T13:20:03.608Z,5.56
2017-03-02T13:21:13.921Z,5.71
2017-03-02T13:22:24.298Z,5.71
2017-03-02T13:23:34.807Z,5.68
2017-03-02T13:24:45.111Z,5.68
2017-03-02T13:26:26.289Z,5.77
2017-03-02T13:27:36.235Z,5.67
2017-03-02T13:28:46.418Z,5.69
2017-03-02T13:29:56.782Z,5.69
2017-03-02T13:31:07.207Z,5.69
2017-03-02T13:32:17.563Z,5.71
2017-03-02T13:33:27.268Z,5.67
2017-03-02T13:34:37.443Z,5.68
2017-03-02T13:35:47.355Z,5.68
2017-03-02T13:36:57.877Z,5.51
2017-03-02T13:38:08.163Z,5.59
2017-03-02T13:39:18.066Z,5.43
2017-03-02T13:40:28.640Z,5.44
2017-03-02T13:41:38.975Z,5.5
2017-03-02T13:42:49.397Z,5.46
2017-03-02T13:43:59.842Z,5.43
2017-03-02T13:45:10.175Z,5.56
2017-03-02T13:46:20.340Z,5.56
2017-03-02T13:47:30.468Z,5.61
2017-03-02T13:48:40.779Z,5.62
2017-03-02T13:49:50.682Z,5.58
2017-03-02T13:51:00.992Z,5.58
2017-03-02T13:52:11.577Z,5.54
2017-03-02T13:53:21.881Z,5.58
2017-03-02T13:54:32.333Z,5.49
2017-03-02T13:55:42.243Z,5.56
2017-03-02T13:56:52.562Z,5.51
2017-03-02T13:58:01.941Z,5.53
2017-03-02T13:59:12.249Z,5.56
2017-03-02T14:00:22.542Z,5.54
2017-03-02T14:01:32.418Z,5.5
2017-03-02T14:02:42.801Z,5.46
2017-03-02T14:03:52.515Z,5.47
2017-03-02T14:05:02.821Z,5.5
2017-03-02T14:06:13.153Z,5.47
2017-03-02T14:07:23.463Z,5.46
2017-03-02T14:08:33.802Z,5.44
2017-03-02T14:09:43.777Z,5.4
2017-03-02T14:10:54.202Z,5.41
2017-03-02T14:12:04.497Z,5.32
2017-03-02T14:13:14.367Z,5.32
2017-03-02T14:14:24.250Z,5.31
2017-03-02T14:15:34.563Z,5.29
2017-03-02T14:16:44.461Z,5.28
2017-03-02T14:17:54.743Z,5.41
2017-03-02T14:19:04.673Z,5.4
2017-03-02T14:20:14.957Z,5.49
2017-03-02T14:21:25.165Z,5.47
2017-03-02T14:22:35.124Z,5.38
2017-03-02T14:23:45.422Z,5.38
2017-03-02T14:24:55.758Z,5.36
2017-03-02T14:26:06.091Z,5.41
2017-03-02T14:27:16.668Z,5.41
2017-03-02T14:28:27.008Z,5.44
2017-03-02T14:29:37.333Z,5.44
2017-03-02T14:30:47.228Z,5.5
2017-03-02T14:31:57.517Z,5.64
2017-03-02T14:33:07.301Z,5.68
2017-03-02T14:34:17.184Z,5.68
2017-03-02T14:35:27.110Z,5.68
2017-03-02T14:36:37.192Z,5.71
2017-03-02T14:37:47.640Z,5.72
2017-03-02T14:38:57.889Z,5.82
2017-03-02T14:40:07.790Z,5.83
2017-03-02T14:41:17.852Z,5.86
2017-03-02T14:42:27.798Z,5.84
2017-03-02T14:43:38.075Z,5.83
2017-03-02T14:44:48.622Z,5.88
2017-03-02T14:45:58.969Z,5.8
2017-03-02T14:47:09.409Z,5.82
2017-03-02T14:48:19.837Z,5.74
2017-03-02T14:49:30.165Z,5.69
2017-03-02T14:50:40.350Z,5.68
2017-03-02T14:51:50.733Z,5.67
2017-03-02T14:53:01.053Z,5.61
2017-03-02T14:54:10.541Z,5.61
2017-03-02T14:55:20.919Z,5.51
2017-03-02T14:56:31.163Z,5.54
2017-03-02T14:57:41.116Z,5.58
2017-03-02T14:58:51.524Z,5.64
2017-03-02T15:00:01.855Z,5.56
2017-03-02T15:01:12.293Z,5.59
2017-03-02T15:02:22.991Z,5.54
2017-03-02T15:03:32.486Z,5.54
2017-03-02T15:04:42.780Z,5.56
2017-03-02T15:05:52.842Z,5.56
2017-03-02T15:07:03.193Z,5.64
2017-03-02T15:08:13.796Z,5.64
2017-03-02T15:09:24.079Z,5.64
2017-03-02T15:10:34.448Z,5.64
2017-03-02T15:11:44.746Z,5.65
2017-03-02T15:12:55.112Z,5.68
2017-03-02T15:14:05.648Z,5.67
2017-03-02T15:15:15.972Z,5.67
2017-03-02T15:16:25.446Z,5.75
2017-03-02T15:17:35.726Z,5.8
2017-03-02T15:18:46.070Z,5.82
2017-03-02T15:19:56.698Z,5.84
2017-03-02T15:21:06.622Z,5.9
2017-03-02T15:22:16.987Z,5.8
2017-03-02T15:23:26.978Z,5.83
2017-03-02T15:24:37.429Z,5.83
2017-03-02T15:25:48.058Z,5.77
2017-03-02T15:26:57.934Z,5.67
2017-03-02T15:28:08.257Z,5.72
2017-03-02T15:29:18.228Z,5.69
2017-03-02T15:30:28.114Z,5.58
2017-03-02T15:31:38.821Z,5.59
2017-03-02T15:32:49.123Z,5.59